createdAt,value
2023-10-21T00:03:54.385Z,4.50
2023-10-21T00:08:56.994Z,5.87
2023-10-21T00:13:59.514Z,5.27
2023-10-21T00:19:02.687Z,4.20
2023-10-21T00:24:05.440Z,4.67
2023-10-21T00:29:08.073Z,2.97
2023-10-21T00:34:13.805Z,4.03
2023-10-21T00:39:16.256Z,4.67
2023-10-21T00:44:18.824Z,5.63
2023-10-21T00:49:21.629Z,4.70
2023-10-21T00:54:27.080Z,3.10
2023-10-21T00:59:29.744Z,5.10
2023-10-21T01:04:32.476Z,4.77
2023-10-21T01:09:35.336Z,5.40
2023-10-21T01:14:38.013Z,3.87
2023-10-21T01:19:40.559Z,3.27
2023-10-21T01:24:43.090Z,2.97
2023-10-21T01:29:45.592Z,4.67
2023-10-21T01:34:48.083Z,4.23
2023-10-21T01:39:50.431Z,3.80
2023-10-21T01:44:55.524Z,3.90
2023-10-21T01:49:59.525Z,4.60
2023-10-21T01:55:04.817Z,7.70
2023-10-21T02:00:11.111Z,7.57
2023-10-21T02:05:16.742Z,4.03
2023-10-21T02:10:19.695Z,5.57
2023-10-21T02:15:22.371Z,5.57
2023-10-21T02:20:24.947Z,5.00
2023-10-21T02:25:27.463Z,4.10
2023-10-21T02:30:32.601Z,4.93
2023-10-21T02:35:35.538Z,3.00
2023-10-21T02:40:42.128Z,5.83
2023-10-21T02:45:44.923Z,4.93
2023-10-21T02:50:47.533Z,3.37
2023-10-21T02:55:50.436Z,5.10
2023-10-21T03:00:53.057Z,6.40
2023-10-21T03:05:56.308Z,6.20
2023-10-21T03:10:59.120Z,4.10
2023-10-21T03:16:09.691Z,5.43
2023-10-21T03:21:12.694Z,3.70
2023-10-21T03:26:15.336Z,5.97
2023-10-21T03:31:17.966Z,5.20
2023-10-21T03:36:20.745Z,3.73
2023-10-21T03:41:25.537Z,7.63
2023-10-21T03:46:28.137Z,6.30
2023-10-21T03:51:31.870Z,7.43
2023-10-21T03:56:34.435Z,7.27
2023-10-21T04:01:36.988Z,7.03
2023-10-21T04:06:39.786Z,7.40
2023-10-21T04:11:43.878Z,6.80
2023-10-21T04:16:46.431Z,4.47
2023-10-21T04:21:49.053Z,7.00
2023-10-21T04:26:51.597Z,7.80
2023-10-21T04:31:54.088Z,4.53
2023-10-21T04:36:57.120Z,7.10
2023-10-21T04:41:59.669Z,5.23
2023-10-21T04:47:02.204Z,3.47
2023-10-21T04:52:05.814Z,5.07
2023-10-21T04:57:08.435Z,4.17
2023-10-21T05:02:10.922Z,5.07
2023-10-21T05:07:13.448Z,3.97
2023-10-21T05:12:16.069Z,4.50
2023-10-21T05:17:18.864Z,3.87
2023-10-21T05:22:21.370Z,5.03
2023-10-21T05:27:24.186Z,4.97
2023-10-21T05:32:26.781Z,4.83
2023-10-21T05:37:29.334Z,4.70
2023-10-21T05:42:32.069Z,3.77
2023-10-21T05:47:35.342Z,4.53
2023-10-21T05:52:38.117Z,3.87
2023-10-21T05:57:41.039Z,7.20
2023-10-21T06:02:43.594Z,7.60
2023-10-21T06:07:46.064Z,9.70
2023-10-21T06:12:49.816Z,7.50
2023-10-21T06:17:52.648Z,5.80
2023-10-21T06:22:55.191Z,5.80
2023-10-21T06:27:59.359Z,5.73
2023-10-21T06:33:01.971Z,4.80
2023-10-21T06:38:05.374Z,5.93
2023-10-21T06:43:08.050Z,4.87
2023-10-21T06:48:10.764Z,5.83
2023-10-21T06:53:13.337Z,6.93
2023-10-21T06:58:15.978Z,6.50
2023-10-21T07:03:18.692Z,4.60
2023-10-21T07:08:21.298Z,6.53
2023-10-21T07:13:23.959Z,5.70
2023-10-21T07:18:26.461Z,7.40
2023-10-21T07:23:29.118Z,8.27
2023-10-21T07:28:32.682Z,6.53
2023-10-21T07:33:35.549Z,7.90
2023-10-21T07:38:38.278Z,4.87
2023-10-21T07:43:40.792Z,6.07
2023-10-21T07:48:43.260Z,4.50
2023-10-21T07:53:45.841Z,5.07
2023-10-21T07:58:48.324Z,6.23
2023-10-21T08:03:50.968Z,5.13
2023-10-21T08:08:53.713Z,6.10
2023-10-21T08:13:56.237Z,5.97
2023-10-21T08:18:59.908Z,9.67
2023-10-21T08:24:06.506Z,5.67
2023-10-21T08:29:11.407Z,7.70
2023-10-21T08:34:14.590Z,10.33
2023-10-21T08:39:17.145Z,5.70
2023-10-21T08:44:21.408Z,7.23
2023-10-21T08:49:25.241Z,12.67
2023-10-21T08:54:29.141Z,4.83
2023-10-21T08:59:32.157Z,7.63
2023-10-21T09:04:34.738Z,6.67
2023-10-21T09:09:37.723Z,10.57
2023-10-21T09:14:53.586Z,13.30
2023-10-21T09:19:56.160Z,13.23
2023-10-21T09:25:16.113Z,7.60
2023-10-21T09:30:19.646Z,7.17
2023-10-21T09:35:25.336Z,21.67
2023-10-21T09:40:27.882Z,22.67
2023-10-21T09:45:31.173Z,28.23
2023-10-21T09:50:37.120Z,19.33
2023-10-21T09:55:43.239Z,15.67
2023-10-21T10:00:47.474Z,10.93
2023-10-21T10:05:50.680Z,10.60
2023-10-21T10:10:56.337Z,14.30
2023-10-21T10:16:01.325Z,14.13
2023-10-21T10:21:14.484Z,7.43
2023-10-21T10:26:37.663Z,15.70
2023-10-21T10:31:49.716Z,19.67
2023-10-21T10:36:52.536Z,19.17
2023-10-21T10:41:55.136Z,12.33
2023-10-21T10:46:58.750Z,11.70
2023-10-21T10:52:02.055Z,12.50
2023-10-21T10:57:05.222Z,14.93
2023-10-21T11:02:09.480Z,16.17
2023-10-21T11:07:15.047Z,18.37
2023-10-21T11:12:17.756Z,19.97
2023-10-21T11:17:20.793Z,22.67
2023-10-21T11:22:27.003Z,22.10
2023-10-21T11:27:29.902Z,20.90
2023-10-21T11:32:33.070Z,23.20
2023-10-21T11:37:36.033Z,19.43
2023-10-21T11:42:39.390Z,21.80
2023-10-21T11:47:41.871Z,21.20
2023-10-21T11:52:45.740Z,14.33
2023-10-21T11:58:18.044Z,11.80
2023-10-21T12:03:43.485Z,16.47
2023-10-21T12:09:06.590Z,12.00
2023-10-21T12:14:27.579Z,19.23
2023-10-21T12:19:48.607Z,14.10
2023-10-21T12:25:26.130Z,23.90
2023-10-21T12:30:34.612Z,25.13
2023-10-21T12:35:38.363Z,26.00
2023-10-21T12:40:41.788Z,16.80
2023-10-21T12:45:49.006Z,12.73
2023-10-21T12:50:51.509Z,21.57
2023-10-21T12:55:54.027Z,21.83
2023-10-21T13:00:56.609Z,26.53
2023-10-21T13:05:59.228Z,27.20
2023-10-21T13:11:01.853Z,25.37
2023-10-21T13:16:09.165Z,20.47
2023-10-21T13:21:11.843Z,17.33
2023-10-21T13:26:14.419Z,11.43
2023-10-21T13:31:17.101Z,26.77
2023-10-21T13:36:19.879Z,23.57
2023-10-21T13:41:22.517Z,23.50
2023-10-21T13:46:25.004Z,15.43
2023-10-21T13:51:27.760Z,21.00
2023-10-21T13:56:30.299Z,20.93
2023-10-21T14:01:33.450Z,28.33
2023-10-21T14:06:37.137Z,26.27
2023-10-21T14:11:39.536Z,23.43
2023-10-21T14:16:42.079Z,23.63
2023-10-21T14:21:45.407Z,21.43
2023-10-21T14:26:47.916Z,25.33
2023-10-21T14:31:52.004Z,31.30
2023-10-21T14:36:54.538Z,8.57
2023-10-21T14:41:57.081Z,12.47
2023-10-21T14:47:00.356Z,19.03
2023-10-21T14:52:03.724Z,28.00
2023-10-21T14:57:06.298Z,31.63
2023-10-21T15:02:09.341Z,28.97
2023-10-21T15:07:13.162Z,32.43
2023-10-21T15:12:16.516Z,27.50
2023-10-21T15:17:19.203Z,26.00
2023-10-21T15:22:21.803Z,19.13
2023-10-21T15:27:26.489Z,32.10
2023-10-21T15:32:29.588Z,32.47
2023-10-21T15:37:32.675Z,35.20
2023-10-21T15:42:36.096Z,27.03
2023-10-21T15:47:38.729Z,30.63
2023-10-21T15:52:41.408Z,34.43
2023-10-21T15:57:43.948Z,35.90
2023-10-21T16:02:50.668Z,30.50
2023-10-21T16:07:58.378Z,33.60
2023-10-21T16:13:01.134Z,33.63
2023-10-21T16:18:03.883Z,34.80
2023-10-21T16:23:06.568Z,36.13
2023-10-21T16:28:09.136Z,38.90
2023-10-21T16:33:11.763Z,34.80
2023-10-21T16:38:14.444Z,31.23
2023-10-21T16:43:17.025Z,26.13
2023-10-21T16:48:19.528Z,25.93
2023-10-21T16:53:23.569Z,26.13
2023-10-21T16:58:26.136Z,30.23
2023-10-21T17:03:28.879Z,18.83
2023-10-21T17:08:35.534Z,30.13
2023-10-21T17:13:38.189Z,27.43
2023-10-21T17:18:40.728Z,28.27
2023-10-21T17:23:43.403Z,31.53
2023-10-21T17:28:45.888Z,25.97
2023-10-21T17:33:51.155Z,23.03
2023-10-21T17:38:54.891Z,29.13
2023-10-21T17:43:58.132Z,27.40
2023-10-21T17:49:00.562Z,34.83
2023-10-21T17:54:03.160Z,31.17
2023-10-21T17:59:06.468Z,26.47
2023-10-21T18:04:09.183Z,26.10
2023-10-21T18:09:11.884Z,32.77
2023-10-21T18:14:14.460Z,30.13
2023-10-21T18:19:17.011Z,24.57
2023-10-21T18:24:19.648Z,33.90
2023-10-21T18:29:22.365Z,29.13
2023-10-21T18:40:02.665Z,30.10
2023-10-21T18:45:06.295Z,33.17
2023-10-21T18:50:09.272Z,29.47
2023-10-21T18:55:11.994Z,31.47
2023-10-21T19:00:15.105Z,27.17
2023-10-21T19:05:18.900Z,37.03
2023-10-21T19:10:25.721Z,37.30
2023-10-21T19:15:28.338Z,38.73
2023-10-21T19:20:30.867Z,28.60
2023-10-21T19:25:33.981Z,32.80
2023-10-21T19:30:36.579Z,36.80
2023-10-21T19:35:39.225Z,23.77
2023-10-21T19:40:41.722Z,36.97
2023-10-21T19:45:45.400Z,35.23
2023-10-21T19:50:47.990Z,36.80
2023-10-21T19:55:58.263Z,36.03
2023-10-21T20:01:08.514Z,28.73
2023-10-21T20:06:11.106Z,34.90
2023-10-21T20:11:14.488Z,30.83
2023-10-21T20:16:17.027Z,37.43
2023-10-21T20:21:19.731Z,31.93
2023-10-21T20:26:22.290Z,21.27
2023-10-21T20:31:25.137Z,29.93
2023-10-21T20:36:29.101Z,27.17
2023-10-21T20:41:31.889Z,28.50
2023-10-21T20:46:35.300Z,33.30
2023-10-21T20:51:37.981Z,25.87
2023-10-21T20:56:41.238Z,32.20
2023-10-21T21:01:44.001Z,32.10
2023-10-21T21:06:46.538Z,37.50
2023-10-21T21:11:52.585Z,29.20
2023-10-21T21:16:55.166Z,34.77
2023-10-21T21:21:58.746Z,33.90
2023-10-21T21:27:01.405Z,31.47
2023-10-21T21:32:04.898Z,33.40
2023-10-21T21:37:10.795Z,30.40
2023-10-21T21:42:13.343Z,32.83
2023-10-21T21:47:16.575Z,34.03
2023-10-21T21:52:19.288Z,34.07
2023-10-21T21:57:21.798Z,28.70
2023-10-21T22:02:24.676Z,30.63
2023-10-21T22:07:27.426Z,31.80
2023-10-21T22:12:30.144Z,22.50
2023-10-21T22:17:32.707Z,33.60
2023-10-21T22:22:35.476Z,34.70
2023-10-21T22:27:38.389Z,28.43
2023-10-21T22:32:40.899Z,28.70
2023-10-21T22:37:43.539Z,26.63
2023-10-21T22:42:46.037Z,29.53
2023-10-21T22:47:48.630Z,30.70
2023-10-21T22:52:51.150Z,24.43
2023-10-21T22:57:53.764Z,29.40
2023-10-21T23:03:02.529Z,29.17
2023-10-21T23:08:18.130Z,21.27
2023-10-21T23:13:20.732Z,30.03
2023-10-21T23:18:23.700Z,30.93
2023-10-21T23:23:26.243Z,26.83
2023-10-21T23:28:29.607Z,28.37
2023-10-21T23:33:32.335Z,29.07
2023-10-21T23:38:35.211Z,26.80
2023-10-21T23:43:37.747Z,30.03
2023-10-21T23:48:40.653Z,29.07
2023-10-21T23:53:43.425Z,26.60
2023-10-21T23:58:45.955Z,26.50
